createdAt,value
2017-12-24T00:01:24.036Z,20.80
2017-12-24T00:03:52.720Z,18.43
2017-12-24T00:06:21.405Z,19.17
2017-12-24T00:08:50.045Z,18.47
2017-12-24T00:11:19.491Z,18.53
2017-12-24T00:13:48.227Z,19.40
2017-12-24T00:16:17.685Z,17.23
2017-12-24T00:18:46.371Z,19.00
2017-12-24T00:21:15.253Z,18.80
2017-12-24T00:23:43.950Z,19.53
2017-12-24T00:26:12.566Z,20.10
2017-12-24T00:28:41.421Z,17.40
2017-12-24T00:31:11.080Z,17.30
2017-12-24T00:33:40.537Z,18.10
2017-12-24T00:36:09.265Z,17.90
2017-12-24T00:38:38.721Z,19.13
2017-12-24T00:41:07.351Z,16.53
2017-12-24T00:43:36.816Z,18.40
2017-12-24T00:46:05.503Z,18.30
2017-12-24T00:48:34.175Z,16.73
2017-12-24T00:51:03.022Z,17.83
2017-12-24T00:53:31.663Z,16.93
2017-12-24T00:56:00.246Z,16.30
2017-12-24T00:58:28.974Z,17.43
2017-12-24T01:00:58.432Z,16.43
2017-12-24T01:03:27.016Z,18.53
2017-12-24T01:05:55.896Z,16.60
2017-12-24T01:08:24.541Z,15.50
2017-12-24T01:10:54.000Z,15.17
2017-12-24T01:13:22.990Z,17.07
2017-12-24T01:15:51.622Z,16.77
2017-12-24T01:18:21.074Z,15.20
2017-12-24T01:20:49.870Z,15.97
2017-12-24T01:23:18.446Z,15.50
2017-12-24T01:25:47.032Z,16.03
2017-12-24T01:28:16.086Z,15.13
2017-12-24T01:30:44.810Z,15.90
2017-12-24T01:33:13.448Z,14.53
2017-12-24T01:35:43.411Z,14.83
2017-12-24T01:38:11.997Z,14.83
2017-12-24T01:40:40.684Z,15.27
2017-12-24T01:43:09.742Z,14.47
2017-12-24T01:45:38.461Z,14.07
2017-12-24T01:48:08.758Z,14.67
2017-12-24T01:50:37.571Z,14.50
2017-12-24T01:53:06.264Z,14.10
2017-12-24T01:55:34.840Z,13.67
2017-12-24T01:58:03.738Z,15.10
2017-12-24T02:00:32.320Z,14.97
2017-12-24T02:03:01.007Z,15.37
2017-12-24T02:05:29.793Z,15.03
2017-12-24T02:07:58.477Z,15.37
2017-12-24T02:10:27.063Z,15.13
2017-12-24T02:12:55.803Z,15.07
2017-12-24T02:15:25.296Z,16.97
2017-12-24T02:17:54.756Z,22.70
2017-12-24T02:20:23.606Z,19.97
2017-12-24T02:22:53.050Z,22.43
2017-12-24T02:25:21.640Z,18.27
2017-12-24T02:27:50.684Z,20.63
2017-12-24T02:30:19.379Z,20.50
2017-12-24T02:32:48.107Z,17.53
2017-12-24T02:35:17.134Z,15.17
2017-12-24T02:37:45.877Z,19.77
2017-12-24T02:40:14.569Z,19.80
2017-12-24T02:42:43.364Z,19.03
2017-12-24T02:45:11.947Z,17.20
2017-12-24T02:47:40.597Z,14.83
2017-12-24T02:50:09.468Z,15.10
2017-12-24T02:52:38.925Z,15.33
2017-12-24T02:55:07.611Z,14.77
2017-12-24T02:57:36.448Z,14.27
2017-12-24T03:00:05.913Z,15.27
2017-12-24T03:02:34.578Z,15.00
2017-12-24T03:05:03.424Z,15.30
2017-12-24T03:07:32.883Z,15.20
2017-12-24T03:10:01.460Z,13.83
2017-12-24T03:12:30.257Z,13.73
2017-12-24T03:14:58.891Z,13.23
2017-12-24T03:17:28.341Z,12.60
2017-12-24T03:19:57.223Z,11.77
2017-12-24T03:22:25.920Z,12.20
2017-12-24T03:24:54.606Z,11.47
2017-12-24T03:27:23.599Z,12.30
2017-12-24T03:29:52.998Z,15.13
2017-12-24T03:32:21.785Z,13.53
2017-12-24T03:34:50.776Z,13.40
2017-12-24T03:37:19.364Z,11.57
2017-12-24T03:39:47.950Z,11.20
2017-12-24T03:42:17.088Z,10.20
2017-12-24T03:44:46.551Z,10.00
2017-12-24T03:47:15.237Z,9.10
2017-12-24T03:49:44.022Z,10.10
2017-12-24T03:52:12.659Z,9.13
2017-12-24T03:54:42.106Z,8.90
2017-12-24T03:57:11.104Z,8.60
2017-12-24T03:59:39.785Z,9.20
2017-12-24T04:02:08.471Z,8.40
2017-12-24T04:04:37.266Z,8.07
2017-12-24T04:07:05.912Z,7.83
2017-12-24T04:09:34.638Z,9.07
2017-12-24T04:12:03.619Z,8.70
2017-12-24T04:14:32.320Z,7.70
2017-12-24T04:17:00.936Z,8.57
2017-12-24T04:19:29.625Z,9.23
2017-12-24T04:21:59.088Z,9.77
2017-12-24T04:24:27.714Z,9.27
2017-12-24T04:26:57.375Z,8.50
2017-12-24T04:29:26.068Z,8.30
2017-12-24T04:31:54.753Z,8.90
2017-12-24T04:34:23.340Z,8.77
2017-12-24T04:36:52.025Z,7.73
2017-12-24T04:39:20.601Z,7.33
2017-12-24T04:41:49.333Z,8.30
2017-12-24T04:44:18.797Z,14.60
2017-12-24T04:46:47.422Z,9.27
2017-12-24T04:49:18.012Z,18.53
2017-12-24T04:51:46.682Z,10.57
2017-12-24T04:54:15.377Z,7.77
2017-12-24T04:56:44.118Z,7.50
2017-12-24T04:59:13.468Z,8.37
2017-12-24T05:01:42.056Z,8.77
2017-12-24T05:04:11.049Z,9.50
2017-12-24T05:06:39.735Z,9.90
2017-12-24T05:09:08.356Z,12.50
2017-12-24T05:11:37.820Z,11.83
2017-12-24T05:14:06.466Z,19.40
2017-12-24T05:16:35.191Z,15.67
2017-12-24T05:19:04.952Z,12.37
2017-12-24T05:21:33.693Z,11.87
2017-12-24T05:24:02.378Z,11.47
2017-12-24T05:26:31.150Z,12.13
2017-12-24T05:28:59.751Z,16.03
2017-12-24T05:31:28.428Z,18.63
2017-12-24T05:33:57.320Z,15.47
2017-12-24T05:36:26.004Z,14.93
2017-12-24T05:38:54.690Z,19.03
2017-12-24T05:41:23.536Z,24.13
2017-12-24T05:43:52.994Z,23.27
2017-12-24T05:46:21.681Z,11.03
2017-12-24T05:48:50.366Z,10.17
2017-12-24T05:51:18.942Z,10.63
2017-12-24T05:53:47.628Z,10.67
2017-12-24T05:56:16.314Z,10.83
2017-12-24T05:58:44.902Z,12.37
2017-12-24T06:01:13.578Z,12.93
2017-12-24T06:03:42.275Z,11.07
2017-12-24T06:06:10.960Z,11.03
2017-12-24T06:08:39.584Z,12.43
2017-12-24T06:11:09.142Z,17.07
2017-12-24T06:13:37.839Z,18.87
2017-12-24T06:16:06.525Z,17.97
2017-12-24T06:18:35.251Z,18.63
2017-12-24T06:21:04.670Z,17.83
2017-12-24T06:23:33.395Z,21.33
2017-12-24T06:26:02.080Z,23.53
2017-12-24T06:28:30.767Z,26.20
2017-12-24T06:30:59.415Z,23.27
2017-12-24T06:33:28.408Z,20.10
2017-12-24T06:35:57.131Z,21.13
2017-12-24T06:38:25.818Z,20.20
2017-12-24T06:40:54.761Z,23.43
2017-12-24T06:43:24.221Z,21.70
2017-12-24T06:45:52.914Z,23.07
2017-12-24T06:48:21.664Z,21.53
2017-12-24T06:50:50.378Z,17.20
2017-12-24T06:53:19.062Z,17.83
2017-12-24T06:55:47.749Z,16.90
2017-12-24T06:58:16.384Z,16.77
2017-12-24T07:00:45.874Z,18.97
2017-12-24T07:03:14.527Z,20.20
2017-12-24T07:05:43.206Z,18.83
2017-12-24T07:08:13.023Z,14.20
2017-12-24T07:10:41.808Z,13.40
2017-12-24T07:13:10.641Z,19.33
2017-12-24T07:15:40.106Z,25.27
2017-12-24T07:18:08.776Z,22.23
2017-12-24T07:20:37.369Z,18.20
2017-12-24T07:23:06.054Z,21.03
2017-12-24T07:25:34.681Z,23.50
2017-12-24T07:28:04.141Z,21.97
2017-12-24T07:30:32.924Z,23.20
2017-12-24T07:33:01.610Z,21.90
2017-12-24T07:35:30.250Z,20.83
2017-12-24T07:37:59.868Z,22.33
2017-12-24T07:40:28.589Z,18.13
2017-12-24T07:42:57.229Z,30.33
2017-12-24T07:45:26.847Z,19.43
2017-12-24T07:47:55.469Z,26.27
2017-12-24T07:50:24.066Z,57.83
2017-12-24T07:52:52.940Z,17.50
2017-12-24T07:55:21.528Z,50.23
2017-12-24T07:57:50.213Z,39.57
2017-12-24T08:00:19.207Z,19.23
2017-12-24T08:02:47.850Z,29.07
2017-12-24T08:05:16.578Z,26.13
2017-12-24T08:07:45.289Z,27.73
2017-12-24T08:10:14.048Z,33.10
2017-12-24T08:12:42.734Z,18.60
2017-12-24T08:15:11.685Z,19.83
2017-12-24T08:17:40.314Z,29.10
2017-12-24T08:20:08.901Z,23.80
2017-12-24T08:22:37.576Z,27.60
2017-12-24T08:25:06.254Z,30.00
2017-12-24T08:27:34.896Z,55.30
2017-12-24T08:30:04.972Z,59.90
2017-12-24T08:32:33.610Z,34.87
2017-12-24T08:35:03.057Z,53.10
2017-12-24T08:37:31.843Z,58.00
2017-12-24T08:40:00.539Z,22.10
2017-12-24T08:42:29.233Z,22.30
2017-12-24T08:44:58.009Z,23.93
2017-12-24T08:47:26.547Z,17.57
2017-12-24T08:49:55.995Z,21.93
2017-12-24T08:52:24.779Z,19.40
2017-12-24T08:54:53.422Z,20.40
2017-12-24T08:57:22.151Z,16.70
2017-12-24T08:59:50.946Z,25.83
2017-12-24T09:02:19.632Z,19.90
2017-12-24T09:04:48.319Z,18.43
2017-12-24T09:07:17.166Z,21.23
2017-12-24T09:09:45.852Z,15.13
2017-12-24T09:12:14.520Z,19.53
2017-12-24T09:14:43.984Z,12.23
2017-12-24T09:17:12.652Z,12.47
2017-12-24T09:19:41.295Z,18.03
2017-12-24T09:22:11.019Z,14.30
2017-12-24T09:24:39.943Z,24.60
2017-12-24T09:27:08.641Z,17.27
2017-12-24T09:29:37.494Z,15.07
2017-12-24T09:32:06.216Z,14.57
2017-12-24T09:34:34.855Z,12.70
2017-12-24T09:37:03.692Z,14.50
2017-12-24T09:39:32.362Z,14.40
2017-12-24T09:42:01.005Z,13.50
2017-12-24T09:44:30.476Z,14.77
2017-12-24T09:46:59.038Z,10.60
2017-12-24T09:49:27.731Z,16.83
2017-12-24T09:51:56.828Z,11.27
2017-12-24T09:54:25.615Z,16.50
2017-12-24T09:56:54.233Z,10.80
2017-12-24T09:59:23.707Z,12.57
2017-12-24T10:01:52.394Z,12.70
2017-12-24T10:04:20.968Z,12.03
2017-12-24T10:06:49.765Z,9.93
2017-12-24T10:09:18.550Z,10.53
2017-12-24T10:11:47.104Z,11.13
2017-12-24T10:14:16.020Z,12.40
2017-12-24T10:16:44.657Z,11.20
2017-12-24T10:19:14.115Z,10.80
2017-12-24T10:21:43.267Z,11.60
2017-12-24T10:24:11.993Z,10.60
2017-12-24T10:26:40.627Z,13.47
2017-12-24T10:29:10.146Z,8.97
2017-12-24T10:31:38.873Z,9.60
2017-12-24T10:34:07.559Z,10.60
2017-12-24T10:36:36.343Z,10.20
2017-12-24T10:39:05.028Z,11.53
2017-12-24T10:41:33.659Z,9.93
2017-12-24T10:44:03.277Z,12.73
2017-12-24T10:46:32.769Z,9.47
2017-12-24T10:49:02.188Z,9.27
2017-12-24T10:51:30.916Z,8.60
2017-12-24T10:53:59.548Z,7.53
2017-12-24T10:56:29.018Z,9.80
2017-12-24T10:58:57.859Z,8.10
2017-12-24T11:01:26.580Z,7.43
2017-12-24T11:03:55.311Z,8.60
2017-12-24T11:06:24.872Z,7.60
2017-12-24T11:08:53.608Z,8.07
2017-12-24T11:11:22.355Z,7.03
2017-12-24T11:13:51.140Z,7.40
2017-12-24T11:16:19.826Z,7.33
2017-12-24T11:18:48.405Z,8.20
2017-12-24T11:21:17.089Z,7.23
2017-12-24T11:23:45.732Z,7.63
2017-12-24T11:26:15.183Z,8.03
2017-12-24T11:28:43.968Z,8.33
2017-12-24T11:31:12.614Z,9.47
2017-12-24T11:33:41.165Z,8.70
2017-12-24T11:36:09.874Z,7.23
2017-12-24T11:38:39.326Z,7.97
2017-12-24T11:41:08.011Z,6.73
2017-12-24T11:43:36.696Z,8.07
2017-12-24T11:46:05.345Z,9.30
2017-12-24T11:48:34.058Z,9.23
2017-12-24T11:51:03.219Z,7.87
2017-12-24T11:53:31.947Z,6.17
2017-12-24T11:56:00.569Z,7.13
2017-12-24T11:58:30.108Z,6.43
2017-12-24T12:00:58.716Z,8.07
2017-12-24T12:03:27.260Z,8.00
2017-12-24T12:05:56.297Z,8.33
2017-12-24T12:08:24.983Z,7.83
2017-12-24T12:10:53.648Z,7.20
2017-12-24T12:13:22.715Z,8.10
2017-12-24T12:15:51.446Z,8.33
2017-12-24T12:18:20.077Z,6.47
2017-12-24T12:20:49.694Z,13.40
2017-12-24T12:23:18.425Z,11.33
2017-12-24T12:25:47.015Z,14.90
2017-12-24T12:28:16.110Z,22.63
2017-12-24T12:30:44.657Z,12.87
2017-12-24T12:33:13.269Z,9.97
2017-12-24T12:35:42.227Z,8.50
2017-12-24T12:38:11.670Z,9.40
2017-12-24T12:40:40.356Z,10.93
2017-12-24T12:43:09.141Z,8.67
2017-12-24T12:45:37.825Z,9.43
2017-12-24T12:48:06.512Z,9.67
2017-12-24T12:50:35.205Z,8.57
2017-12-24T12:53:03.897Z,8.37
2017-12-24T12:55:35.180Z,16.40
2017-12-24T12:58:04.910Z,14.20
2017-12-24T13:00:33.627Z,15.47
2017-12-24T13:03:02.272Z,14.13
2017-12-24T13:05:30.999Z,13.40
2017-12-24T13:07:59.633Z,10.60
2017-12-24T13:10:29.094Z,12.53
2017-12-24T13:12:57.978Z,16.83
2017-12-24T13:15:26.611Z,12.87
2017-12-24T13:17:56.025Z,16.90
2017-12-24T13:20:25.825Z,14.87
2017-12-24T13:22:55.234Z,15.10
2017-12-24T13:25:24.683Z,14.47
2017-12-24T13:27:53.779Z,11.90
2017-12-24T13:30:23.387Z,13.67
2017-12-24T13:32:51.973Z,16.13
2017-12-24T13:35:20.659Z,11.77
2017-12-24T13:37:49.345Z,12.93
2017-12-24T13:40:17.987Z,12.80
2017-12-24T13:42:47.028Z,15.60
2017-12-24T13:45:15.605Z,16.10
2017-12-24T13:47:44.156Z,15.07
2017-12-24T13:50:13.133Z,12.00
2017-12-24T13:52:42.590Z,14.07
2017-12-24T13:55:11.279Z,16.20
2017-12-24T13:57:40.012Z,13.63
2017-12-24T14:00:09.429Z,12.23
2017-12-24T14:02:38.097Z,14.73
2017-12-24T14:05:08.015Z,13.73
2017-12-24T14:07:36.747Z,11.57
2017-12-24T14:10:05.447Z,13.63
2017-12-24T14:12:34.325Z,11.93
2017-12-24T14:15:02.912Z,13.77
2017-12-24T14:17:31.598Z,14.60
2017-12-24T14:20:00.383Z,10.30
2017-12-24T14:22:29.070Z,10.77
2017-12-24T14:24:57.706Z,13.70
2017-12-24T14:27:27.299Z,10.67
2017-12-24T14:29:56.761Z,12.47
2017-12-24T14:32:25.409Z,11.57
2017-12-24T14:34:54.133Z,14.33
2017-12-24T14:37:22.818Z,13.40
2017-12-24T14:39:51.504Z,17.03
2017-12-24T14:42:20.096Z,16.07
2017-12-24T14:44:48.776Z,13.40
2017-12-24T14:47:17.416Z,13.53
2017-12-24T14:49:47.332Z,10.83
2017-12-24T14:52:16.776Z,9.60
2017-12-24T14:54:45.419Z,10.77
2017-12-24T14:57:14.152Z,12.93
2017-12-24T14:59:42.779Z,15.97
2017-12-24T15:02:12.243Z,13.43
2017-12-24T15:04:41.030Z,14.47
2017-12-24T15:07:16.209Z,15.63
2017-12-24T15:09:45.773Z,9.83
2017-12-24T15:12:14.447Z,11.47
2017-12-24T15:14:43.145Z,12.80
2017-12-24T15:17:11.878Z,17.23
2017-12-24T15:19:41.338Z,23.10
2017-12-24T15:22:09.960Z,14.90
2017-12-24T15:24:39.431Z,13.10
2017-12-24T15:27:07.993Z,15.77
2017-12-24T15:29:36.688Z,12.80
2017-12-24T15:32:08.354Z,13.57
2017-12-24T15:34:37.052Z,11.40
2017-12-24T15:37:05.826Z,13.83
2017-12-24T15:39:34.459Z,15.60
2017-12-24T15:42:03.912Z,18.73
2017-12-24T15:44:32.695Z,17.97
2017-12-24T15:47:01.282Z,31.03
2017-12-24T15:49:29.958Z,34.70
2017-12-24T15:51:58.863Z,24.93
2017-12-24T15:54:27.490Z,19.23
2017-12-24T15:56:56.947Z,31.97
2017-12-24T15:59:25.680Z,21.83
2017-12-24T16:01:55.142Z,22.27
2017-12-24T16:04:23.716Z,23.97
2017-12-24T16:06:52.406Z,18.17
2017-12-24T16:09:21.089Z,12.77
2017-12-24T16:11:49.775Z,16.50
2017-12-24T16:14:18.570Z,22.63
2017-12-24T16:16:47.251Z,29.70
2017-12-24T16:19:15.942Z,25.83
2017-12-24T16:21:44.567Z,24.43
2017-12-24T16:24:13.981Z,25.77
2017-12-24T16:26:43.471Z,30.67
2017-12-24T16:29:12.941Z,30.87
2017-12-24T16:31:41.780Z,32.50
2017-12-24T16:34:11.229Z,22.03
2017-12-24T16:36:40.170Z,30.87
2017-12-24T16:39:09.620Z,21.47
2017-12-24T16:41:38.306Z,28.73
2017-12-24T16:44:07.101Z,17.10
2017-12-24T16:46:35.634Z,23.70
2017-12-24T16:49:04.363Z,24.30
2017-12-24T16:51:33.147Z,28.87
2017-12-24T16:54:01.846Z,22.93
2017-12-24T16:56:30.483Z,28.43
2017-12-24T16:59:00.178Z,19.10
2017-12-24T17:01:29.597Z,19.23
2017-12-24T17:03:58.433Z,25.93
2017-12-24T17:06:27.282Z,30.07
2017-12-24T17:08:56.001Z,25.83
2017-12-24T17:11:24.687Z,25.97
2017-12-24T17:13:53.288Z,18.17
2017-12-24T17:16:21.978Z,19.70
2017-12-24T17:18:50.694Z,20.40
2017-12-24T17:21:20.559Z,35.50
2017-12-24T17:23:49.190Z,48.73
2017-12-24T17:26:17.932Z,45.97
2017-12-24T17:28:46.925Z,54.17
2017-12-24T17:31:15.616Z,61.07
2017-12-24T17:33:44.297Z,40.77
2017-12-24T17:36:13.181Z,32.67
2017-12-24T17:38:41.876Z,23.80
2017-12-24T17:41:10.453Z,26.17
2017-12-24T17:43:39.397Z,25.97
2017-12-24T17:46:08.133Z,17.57
2017-12-24T17:48:36.783Z,23.70
2017-12-24T17:51:05.507Z,25.73
2017-12-24T17:53:34.168Z,28.93
2017-12-24T17:56:02.835Z,34.10
2017-12-24T17:58:31.869Z,31.33
2017-12-24T18:01:00.553Z,36.70
2017-12-24T18:03:29.189Z,21.87
2017-12-24T18:05:58.641Z,18.47
2017-12-24T18:08:27.335Z,22.33
2017-12-24T18:10:55.912Z,26.93
2017-12-24T18:13:24.760Z,18.33
2017-12-24T18:15:54.203Z,18.70
2017-12-24T18:18:22.899Z,20.77
2017-12-24T18:20:51.738Z,22.63
2017-12-24T18:23:21.185Z,20.60
2017-12-24T18:25:49.823Z,16.87
2017-12-24T18:28:18.818Z,17.97
2017-12-24T18:30:47.548Z,19.77
2017-12-24T18:33:16.134Z,17.70
2017-12-24T18:35:46.019Z,22.77
2017-12-24T18:38:14.566Z,22.17
2017-12-24T18:40:43.323Z,17.13
2017-12-24T18:43:12.048Z,21.40
2017-12-24T18:45:41.510Z,26.27
2017-12-24T18:48:10.158Z,19.53
2017-12-24T18:50:39.150Z,26.87
2017-12-24T18:53:07.873Z,26.67
2017-12-24T18:55:36.511Z,15.10
2017-12-24T18:58:06.452Z,14.77
2017-12-24T19:00:35.158Z,16.17
2017-12-24T19:03:03.790Z,14.87
2017-12-24T19:05:33.332Z,17.30
2017-12-24T19:08:02.040Z,15.23
2017-12-24T19:10:30.732Z,25.23
2017-12-24T19:12:59.660Z,23.93
2017-12-24T19:15:29.116Z,30.23
2017-12-24T19:17:57.705Z,30.40
2017-12-24T19:20:26.438Z,42.40
2017-12-24T19:22:55.900Z,29.47
2017-12-24T19:25:27.142Z,31.60
2017-12-24T19:27:55.731Z,35.13
2017-12-24T19:30:24.303Z,32.63
2017-12-24T19:32:53.100Z,35.40
2017-12-24T19:35:21.741Z,37.17
2017-12-24T19:37:50.470Z,31.43
2017-12-24T19:40:19.205Z,35.40
2017-12-24T19:42:48.657Z,36.13
2017-12-24T19:45:17.339Z,29.60
2017-12-24T19:47:46.031Z,31.83
2017-12-24T19:50:14.676Z,30.00
2017-12-24T19:52:43.397Z,36.40
2017-12-24T19:55:13.059Z,47.47
2017-12-24T19:57:42.415Z,36.87
2017-12-24T20:00:11.095Z,39.67
2017-12-24T20:02:39.944Z,35.93
2017-12-24T20:05:08.672Z,36.00
2017-12-24T20:07:37.301Z,36.13
2017-12-24T20:10:06.963Z,39.30
2017-12-24T20:12:35.649Z,39.70
2017-12-24T20:15:04.333Z,71.07
2017-12-24T20:17:33.473Z,82.57
2017-12-24T20:20:02.837Z,77.57
2017-12-24T20:22:31.423Z,67.10
2017-12-24T20:25:00.109Z,48.63
2017-12-24T20:27:29.662Z,38.60
2017-12-24T20:29:58.362Z,43.67
2017-12-24T20:32:27.079Z,45.43
2017-12-24T20:34:56.540Z,40.70
2017-12-24T20:37:25.162Z,41.53
2017-12-24T20:39:54.682Z,70.07
2017-12-24T20:42:23.410Z,57.47
2017-12-24T20:44:52.046Z,67.47
2017-12-24T20:47:21.088Z,85.07
2017-12-24T20:49:49.677Z,106.50
2017-12-24T20:52:18.224Z,99.00
2017-12-24T20:54:47.146Z,54.13
2017-12-24T20:57:15.782Z,30.23
2017-12-24T20:59:45.242Z,25.57
2017-12-24T21:02:13.916Z,25.43
2017-12-24T21:04:42.607Z,26.73
2017-12-24T21:07:11.253Z,25.87
2017-12-24T21:09:40.022Z,25.30
2017-12-24T21:12:09.439Z,31.20
2017-12-24T21:14:38.169Z,37.40
2017-12-24T21:17:07.064Z,37.23
2017-12-24T21:19:35.645Z,40.33
2017-12-24T21:22:04.196Z,53.50
2017-12-24T21:24:33.177Z,50.80
2017-12-24T21:27:01.905Z,32.00
2017-12-24T21:29:30.491Z,42.93
2017-12-24T21:31:59.486Z,41.93
2017-12-24T21:34:28.124Z,58.50
2017-12-24T21:36:57.570Z,46.93
2017-12-24T21:39:26.305Z,32.60
2017-12-24T21:41:55.765Z,34.83
2017-12-24T21:44:24.451Z,30.67
2017-12-24T21:46:53.234Z,28.37
2017-12-24T21:49:21.920Z,26.47
2017-12-24T21:51:50.607Z,20.90
2017-12-24T21:54:19.614Z,27.57
2017-12-24T21:56:48.330Z,25.77
2017-12-24T21:59:17.795Z,20.73
2017-12-24T22:01:46.579Z,23.30
2017-12-24T22:04:15.265Z,25.17
2017-12-24T22:06:44.872Z,29.80
2017-12-24T22:09:14.022Z,25.83
2017-12-24T22:11:43.376Z,27.67
2017-12-24T22:14:11.961Z,22.43
2017-12-24T22:16:40.801Z,22.07
2017-12-24T22:19:09.838Z,20.67
2017-12-24T22:21:38.526Z,26.97
2017-12-24T22:24:07.627Z,22.40
2017-12-24T22:26:36.311Z,15.30
2017-12-24T22:29:04.999Z,15.73
2017-12-24T22:31:33.682Z,15.07
2017-12-24T22:34:02.369Z,14.47
2017-12-24T22:36:31.055Z,16.97
2017-12-24T22:38:59.786Z,22.43
2017-12-24T22:41:29.095Z,24.60
2017-12-24T22:43:58.539Z,46.83
2017-12-24T22:46:27.714Z,26.17
2017-12-24T22:48:56.382Z,32.63
2017-12-24T22:51:25.825Z,32.40
2017-12-24T22:53:55.027Z,24.37
2017-12-24T22:56:23.661Z,16.10
2017-12-24T22:58:53.079Z,21.03
2017-12-24T23:01:21.798Z,32.87
2017-12-24T23:03:50.483Z,36.33
2017-12-24T23:06:19.131Z,46.37
2017-12-24T23:08:47.855Z,45.37
2017-12-24T23:11:16.540Z,31.53
2017-12-24T23:13:45.227Z,32.67
2017-12-24T23:16:14.022Z,30.83
2017-12-24T23:18:42.708Z,28.03
2017-12-24T23:21:11.437Z,25.83
2017-12-24T23:23:41.155Z,25.93
2017-12-24T23:26:09.848Z,27.87
2017-12-24T23:28:38.571Z,29.70
2017-12-24T23:31:07.255Z,31.13
2017-12-24T23:33:35.942Z,31.80
2017-12-24T23:36:04.529Z,29.73
2017-12-24T23:38:33.314Z,29.33
2017-12-24T23:41:02.005Z,26.43
2017-12-24T23:43:30.686Z,24.27
2017-12-24T23:45:59.679Z,22.17
2017-12-24T23:48:28.283Z,25.13
2017-12-24T23:50:56.951Z,23.67
2017-12-24T23:53:25.947Z,23.63
2017-12-24T23:55:55.360Z,23.20
2017-12-24T23:58:24.031Z,24.10
